Time;durP1;ratioP1;P1;durP2;ratioP2;P2;SDS_P1;SDS_P2;PMS_P1;PMS_P2;Temp;Humidity;BMP_temperature;BMP_pressure;BME280_temperature;BME280_humidity;BME280_pressure;Samples;Min_cycle;Max_cycle;Signal;HPM_P1;HPM_P2
2021/10/30 00:01:29;;;;;;;6.30;2.28;;;19.10;72.30;;;;;;5057307;28;20024;-70
2021/10/30 00:03:54;;;;;;;4.40;2.28;;;19.10;72.30;;;;;;5033610;28;20024;-69
2021/10/30 00:06:20;;;;;;;5.30;1.80;;;19.00;72.20;;;;;;5048833;28;20076;-69
2021/10/30 00:08:46;;;;;;;3.42;2.08;;;19.10;72.30;;;;;;5060592;28;20033;-69
2021/10/30 00:11:12;;;;;;;3.05;2.05;;;19.10;72.30;;;;;;5053812;28;20025;-70
2021/10/30 00:13:38;;;;;;;4.00;1.98;;;19.00;72.30;;;;;;5054202;28;20089;-71
2021/10/30 00:16:04;;;;;;;2.88;2.20;;;19.10;72.30;;;;;;5053568;28;20021;-68
2021/10/30 00:18:30;;;;;;;4.70;1.92;;;19.10;72.30;;;;;;5052670;28;20020;-68
2021/10/30 00:20:57;;;;;;;5.53;2.15;;;19.00;72.30;;;;;;5061051;28;20035;-70
2021/10/30 00:23:23;;;;;;;4.88;2.10;;;19.10;72.30;;;;;;5060966;28;20028;-70
2021/10/30 00:25:48;;;;;;;2.75;2.00;;;19.10;72.30;;;;;;5063407;28;20025;-68
2021/10/30 00:28:14;;;;;;;4.07;1.95;;;19.10;72.40;;;;;;5064380;28;20097;-70
2021/10/30 00:30:39;;;;;;;2.65;1.67;;;19.00;72.30;;;;;;5063707;28;20127;-69
2021/10/30 00:33:05;;;;;;;2.85;1.80;;;19.10;72.30;;;;;;5057580;28;20405;-69
2021/10/30 00:35:31;;;;;;;4.30;1.90;;;19.10;72.40;;;;;;5070535;28;20099;-69
2021/10/30 00:37:57;;;;;;;2.20;1.40;;;19.10;72.40;;;;;;5062070;28;20029;-70
2021/10/30 00:40:22;;;;;;;4.03;1.95;;;19.00;72.30;;;;;;5064836;28;20085;-68
2021/10/30 00:42:48;;;;;;;2.78;1.70;;;19.00;72.30;;;;;;5061457;28;20021;-68
2021/10/30 00:45:13;;;;;;;3.50;1.92;;;19.00;72.40;;;;;;5056366;28;20465;-69
2021/10/30 00:47:39;;;;;;;4.50;2.10;;;19.00;72.40;;;;;;5054369;28;20482;-71
2021/10/30 00:50:05;;;;;;;2.67;2.15;;;19.10;72.50;;;;;;5052117;28;20051;-68
2021/10/30 00:52:31;;;;;;;5.30;1.92;;;19.10;72.40;;;;;;5052057;28;20482;-70
2021/10/30 00:54:58;;;;;;;2.70;1.63;;;19.00;72.40;;;;;;5059766;28;20017;-69
2021/10/30 00:57:27;;;;;;;2.50;1.83;;;19.10;72.50;;;;;;5047347;28;20013;-68
2021/10/30 00:59:53;;;;;;;3.25;1.55;;;19.10;72.50;;;;;;5036341;28;20029;-66
2021/10/30 01:02:19;;;;;;;3.25;1.80;;;19.10;72.50;;;;;;5055175;28;20022;-67
2021/10/30 01:04:45;;;;;;;3.15;1.80;;;19.10;72.50;;;;;;5056281;28;20112;-68
2021/10/30 01:07:10;;;;;;;3.63;1.80;;;19.10;72.50;;;;;;5060377;28;20045;-68
2021/10/30 01:09:36;;;;;;;1.50;1.35;;;19.10;72.50;;;;;;5059867;28;20051;-69
2021/10/30 01:12:02;;;;;;;2.95;1.50;;;19.10;72.50;;;;;;5044247;28;20393;-69
2021/10/30 01:14:28;;;;;;;2.95;1.80;;;19.10;72.50;;;;;;5058354;28;20017;-68
2021/10/30 01:17:05;;;;;;;3.05;1.40;;;19.10;72.50;;;;;;5045769;28;20036;-69
2021/10/30 01:19:31;;;;;;;2.15;1.50;;;19.10;72.50;;;;;;5063243;28;20035;-68
2021/10/30 01:21:57;;;;;;;2.45;1.58;;;19.00;72.50;;;;;;5061426;28;20090;-68
2021/10/30 01:24:22;;;;;;;2.05;1.45;;;19.10;72.50;;;;;;5052424;28;20029;-68
2021/10/30 01:26:49;;;;;;;5.13;1.48;;;19.10;72.60;;;;;;5066939;28;20481;-68
2021/10/30 01:29:14;;;;;;;2.58;1.30;;;19.10;72.50;;;;;;5042371;28;20155;-68
2021/10/30 01:31:40;;;;;;;4.90;1.50;;;19.00;72.50;;;;;;5067815;28;20095;-68
2021/10/30 01:34:06;;;;;;;2.47;1.52;;;19.00;72.50;;;;;;5067392;28;20481;-66
2021/10/30 01:36:33;;;;;;;3.65;1.70;;;19.00;72.50;;;;;;5050825;28;20018;-69
2021/10/30 01:38:58;;;;;;;2.83;1.95;;;19.00;72.50;;;;;;5044907;28;20032;-68
2021/10/30 01:41:24;;;;;;;3.00;1.88;;;19.00;72.50;;;;;;5062707;28;20393;-68
2021/10/30 01:43:53;;;;;;;3.25;1.50;;;19.00;72.50;;;;;;5037810;28;20028;-68
2021/10/30 01:46:19;;;;;;;3.17;1.67;;;19.10;72.50;;;;;;5033847;28;20160;-68
2021/10/30 01:48:44;;;;;;;2.33;1.40;;;19.10;72.60;;;;;;5055630;28;20479;-67
2021/10/30 01:51:10;;;;;;;3.22;1.42;;;19.00;72.50;;;;;;5061617;28;20020;-70
2021/10/30 01:53:36;;;;;;;5.45;1.67;;;19.00;72.50;;;;;;5069833;28;20100;-66
2021/10/30 01:56:02;;;;;;;8.05;2.15;;;19.10;72.70;;;;;;5053846;28;20048;-65
2021/10/30 01:58:28;;;;;;;3.85;1.60;;;19.10;72.60;;;;;;5051598;28;20025;-66
2021/10/30 02:00:54;;;;;;;4.03;1.73;;;19.00;72.60;;;;;;5035301;28;20074;-65
2021/10/30 02:03:20;;;;;;;6.93;1.63;;;19.10;72.60;;;;;;5053379;28;20029;-66
2021/10/30 02:05:46;;;;;;;2.08;1.50;;;19.10;72.60;;;;;;5035601;28;20029;-66
2021/10/30 02:08:11;;;;;;;3.33;1.63;;;19.00;72.60;;;;;;5051601;28;20049;-66
2021/10/30 02:10:37;;;;;;;3.72;1.60;;;19.10;72.60;;;;;;5053138;28;20449;-66
2021/10/30 02:13:03;;;;;;;1.67;1.40;;;19.10;72.70;;;;;;5052879;28;20029;-65
2021/10/30 02:15:28;;;;;;;1.38;1.15;;;19.00;72.60;;;;;;5052899;28;20020;-66
2021/10/30 02:17:54;;;;;;;2.60;1.50;;;19.00;72.60;;;;;;5032273;28;20029;-66
2021/10/30 02:20:21;;;;;;;2.55;1.42;;;19.00;72.60;;;;;;5047851;28;20391;-65
2021/10/30 02:22:51;;;;;;;3.72;1.70;;;19.00;72.60;;;;;;5030888;28;20025;-66
2021/10/30 02:25:17;;;;;;;2.95;1.40;;;19.00;72.60;;;;;;5063199;28;20138;-66
2021/10/30 02:27:42;;;;;;;1.98;1.52;;;19.00;72.70;;;;;;5047581;28;20574;-66
2021/10/30 02:30:08;;;;;;;1.90;1.40;;;19.00;72.70;;;;;;5058383;28;20021;-66
2021/10/30 02:32:34;;;;;;;4.00;1.58;;;19.00;72.70;;;;;;5052313;28;20021;-65
2021/10/30 02:35:00;;;;;;;1.70;1.50;;;19.00;72.70;;;;;;5052232;28;20044;-66
2021/10/30 02:37:25;;;;;;;2.60;1.70;;;19.00;72.70;;;;;;5051232;28;20481;-65
2021/10/30 02:39:51;;;;;;;1.45;1.35;;;19.00;72.70;;;;;;5051896;28;20036;-66
2021/10/30 02:42:17;;;;;;;2.63;1.60;;;19.00;72.70;;;;;;5052019;28;20035;-66
2021/10/30 02:44:42;;;;;;;2.95;1.60;;;19.00;72.70;;;;;;5052331;28;20031;-66
2021/10/30 02:47:08;;;;;;;4.03;1.10;;;19.00;72.80;;;;;;5051008;28;20025;-66
2021/10/30 02:49:34;;;;;;;3.15;1.35;;;19.00;72.70;;;;;;5050910;28;20025;-66
2021/10/30 02:51:59;;;;;;;3.67;1.67;;;19.00;72.70;;;;;;5052290;28;20047;-66
2021/10/30 02:54:25;;;;;;;2.35;1.40;;;19.00;72.70;;;;;;5050781;28;20386;-66
2021/10/30 02:56:51;;;;;;;3.50;1.38;;;19.00;72.80;;;;;;5052296;28;20028;-65
2021/10/30 02:59:16;;;;;;;1.30;1.20;;;19.00;72.70;;;;;;5052059;28;20075;-66
2021/10/30 03:01:42;;;;;;;1.25;1.10;;;19.00;72.80;;;;;;5050882;28;20032;-65
2021/10/30 03:04:07;;;;;;;2.47;1.20;;;19.00;72.80;;;;;;5050870;28;20386;-65
2021/10/30 03:06:33;;;;;;;2.40;1.20;;;19.00;72.80;;;;;;5051720;28;20087;-66
2021/10/30 03:08:59;;;;;;;2.95;1.10;;;18.90;72.80;;;;;;5051707;28;20049;-66
2021/10/30 03:11:25;;;;;;;1.55;1.13;;;18.90;72.80;;;;;;5037889;28;20033;-66
2021/10/30 03:13:50;;;;;;;2.20;1.15;;;18.90;72.80;;;;;;5055845;28;20013;-66
2021/10/30 03:16:16;;;;;;;3.10;1.20;;;18.90;72.80;;;;;;5055881;28;20025;-66
2021/10/30 03:18:42;;;;;;;4.90;1.60;;;18.90;72.80;;;;;;5056062;28;20017;-66
2021/10/30 03:21:07;;;;;;;2.67;1.40;;;18.90;72.80;;;;;;5055848;28;20466;-66
2021/10/30 03:23:33;;;;;;;2.55;1.50;;;18.90;72.80;;;;;;5055534;28;20035;-66
2021/10/30 03:25:59;;;;;;;2.72;1.50;;;18.90;72.80;;;;;;5055837;28;20092;-66
2021/10/30 03:28:24;;;;;;;1.65;1.20;;;18.90;72.80;;;;;;5054611;28;20025;-66
2021/10/30 03:30:50;;;;;;;1.80;1.13;;;18.90;72.90;;;;;;5055685;28;20087;-66
2021/10/30 03:33:16;;;;;;;3.05;1.30;;;18.90;72.80;;;;;;5055555;28;20047;-66
2021/10/30 03:35:41;;;;;;;2.33;1.25;;;18.90;72.80;;;;;;5055622;28;20017;-66
2021/10/30 03:38:07;;;;;;;2.58;1.15;;;18.90;72.80;;;;;;5054027;28;20032;-66
2021/10/30 03:40:32;;;;;;;1.52;1.30;;;18.90;72.90;;;;;;5055691;28;20043;-66
2021/10/30 03:42:58;;;;;;;2.13;1.35;;;18.90;72.80;;;;;;5070691;28;20490;-66
2021/10/30 03:45:24;;;;;;;2.42;1.20;;;18.90;72.90;;;;;;5054165;28;20029;-66
2021/10/30 03:47:50;;;;;;;1.77;1.10;;;18.90;72.90;;;;;;5055392;28;20402;-66
2021/10/30 03:50:15;;;;;;;1.52;1.20;;;18.90;72.90;;;;;;5055214;28;20078;-66
2021/10/30 03:52:41;;;;;;;2.58;1.23;;;18.90;72.90;;;;;;5055011;28;20074;-66
2021/10/30 03:55:07;;;;;;;1.55;1.17;;;18.90;72.90;;;;;;5055180;28;20398;-66
2021/10/30 03:57:32;;;;;;;2.00;1.30;;;18.90;72.90;;;;;;5053944;28;20025;-66
2021/10/30 03:59:58;;;;;;;3.10;1.10;;;18.90;72.80;;;;;;5055224;28;20052;-66
2021/10/30 04:02:24;;;;;;;1.95;1.35;;;18.90;72.80;;;;;;5053687;28;20028;-66
2021/10/30 04:04:50;;;;;;;1.40;1.00;;;18.90;72.90;;;;;;5054066;28;20029;-66
2021/10/30 04:07:15;;;;;;;1.45;1.17;;;18.90;72.80;;;;;;5053138;28;20406;-66
2021/10/30 04:09:41;;;;;;;2.33;1.13;;;18.90;72.90;;;;;;5053785;28;20108;-66
2021/10/30 04:12:08;;;;;;;2.30;1.17;;;18.90;72.90;;;;;;5053738;28;20032;-66
2021/10/30 04:14:33;;;;;;;3.25;1.20;;;18.90;72.90;;;;;;5054875;28;20110;-66
2021/10/30 04:16:59;;;;;;;1.42;1.00;;;18.80;72.90;;;;;;5054833;28;20083;-65
2021/10/30 04:19:24;;;;;;;1.40;1.17;;;18.90;73.00;;;;;;5054665;28;20492;-66
2021/10/30 04:21:50;;;;;;;1.15;1.05;;;18.90;72.90;;;;;;5053139;28;20025;-66
2021/10/30 04:24:16;;;;;;;1.13;1.05;;;18.80;72.90;;;;;;5053398;28;20025;-66
2021/10/30 04:26:41;;;;;;;2.38;1.30;;;18.80;72.90;;;;;;5036799;28;20025;-66
2021/10/30 04:29:07;;;;;;;2.78;1.30;;;18.80;72.90;;;;;;5054418;28;20104;-66
2021/10/30 04:31:33;;;;;;;3.35;1.20;;;18.80;72.90;;;;;;5053409;28;20389;-66
2021/10/30 04:34:02;;;;;;;1.95;1.17;;;18.80;73.00;;;;;;5054530;28;20018;-66
2021/10/30 04:36:29;;;;;;;1.17;1.08;;;18.80;73.00;;;;;;5052710;28;20013;-66
2021/10/30 04:38:55;;;;;;;1.17;1.00;;;18.80;73.00;;;;;;5053229;28;20060;-66
2021/10/30 04:41:21;;;;;;;3.25;1.08;;;18.80;73.00;;;;;;5053319;28;20057;-65
2021/10/30 04:43:47;;;;;;;2.15;1.20;;;18.80;72.90;;;;;;5054331;28;20036;-66
2021/10/30 04:46:18;;;;;;;1.38;1.10;;;18.80;72.90;;;;;;5053005;28;20021;-66
2021/10/30 04:48:44;;;;;;;1.50;1.00;;;18.80;73.00;;;;;;5053083;28;20049;-66
2021/10/30 04:51:10;;;;;;;2.13;1.30;;;18.80;73.00;;;;;;5053795;28;20057;-66
2021/10/30 04:53:38;;;;;;;1.70;1.05;;;18.80;73.00;;;;;;5052799;28;20448;-66
2021/10/30 04:56:03;;;;;;;1.60;1.10;;;18.80;73.00;;;;;;5054160;28;20013;-66
2021/10/30 04:58:29;;;;;;;1.60;1.10;;;18.80;73.10;;;;;;5052800;28;20154;-66
2021/10/30 05:00:55;;;;;;;1.48;0.93;;;18.80;73.10;;;;;;5052800;28;20090;-66
2021/10/30 05:03:21;;;;;;;1.98;1.30;;;18.80;73.10;;;;;;5053795;28;20099;-66
2021/10/30 05:05:47;;;;;;;0.77;0.77;;;18.80;73.10;;;;;;5053566;28;20032;-66
2021/10/30 05:08:13;;;;;;;1.08;0.98;;;18.80;73.10;;;;;;5052267;28;20044;-66
2021/10/30 05:10:38;;;;;;;1.85;1.05;;;18.80;73.10;;;;;;5053685;28;20033;-66
2021/10/30 05:13:04;;;;;;;1.27;1.00;;;18.80;73.20;;;;;;5052691;28;20401;-66
2021/10/30 05:15:30;;;;;;;1.17;1.00;;;18.80;73.10;;;;;;5052450;28;20482;-66
2021/10/30 05:17:55;;;;;;;1.38;1.05;;;18.80;73.20;;;;;;5053786;28;20457;-66
2021/10/30 05:20:21;;;;;;;1.30;1.00;;;18.80;73.20;;;;;;5053234;28;20520;-66
2021/10/30 05:22:46;;;;;;;0.95;0.95;;;18.80;73.20;;;;;;5052559;28;20348;-66
2021/10/30 05:25:12;;;;;;;3.17;1.35;;;18.80;73.20;;;;;;5035752;28;20490;-67
2021/10/30 05:27:38;;;;;;;2.92;1.17;;;18.80;73.30;;;;;;5052287;28;20036;-66
2021/10/30 05:30:04;;;;;;;2.80;1.00;;;18.80;73.30;;;;;;5053375;28;20100;-66
2021/10/30 05:32:29;;;;;;;2.17;1.08;;;18.70;73.20;;;;;;5051630;28;20474;-66
2021/10/30 05:34:55;;;;;;;3.88;0.90;;;18.70;73.20;;;;;;5053107;28;20021;-66
2021/10/30 05:37:20;;;;;;;2.08;1.02;;;18.80;73.30;;;;;;5053263;28;20032;-66
2021/10/30 05:39:46;;;;;;;1.55;1.02;;;18.80;73.30;;;;;;5052149;28;20037;-66
2021/10/30 05:42:13;;;;;;;4.25;1.17;;;18.80;73.30;;;;;;5052258;28;20075;-66
2021/10/30 05:44:39;;;;;;;0.75;0.75;;;18.80;73.30;;;;;;5051908;28;20056;-66
2021/10/30 05:47:07;;;;;;;1.33;0.88;;;18.70;73.30;;;;;;5052037;28;20068;-66
2021/10/30 05:49:34;;;;;;;1.35;0.80;;;18.80;73.30;;;;;;5051417;28;20490;-66
2021/10/30 05:52:00;;;;;;;1.60;0.90;;;18.80;73.30;;;;;;5052017;28;20020;-66
2021/10/30 05:54:25;;;;;;;7.78;1.20;;;18.80;73.30;;;;;;5052960;28;20025;-66
2021/10/30 05:56:51;;;;;;;2.30;0.98;;;18.80;73.30;;;;;;5052097;28;20371;-66
2021/10/30 05:59:17;;;;;;;2.45;0.80;;;18.80;73.30;;;;;;5052805;28;20521;-66
2021/10/30 06:01:43;;;;;;;1.50;0.88;;;18.80;73.30;;;;;;5052944;28;20382;-66
2021/10/30 06:04:08;;;;;;;1.52;0.90;;;18.80;73.30;;;;;;5052558;28;20088;-66
2021/10/30 06:06:34;;;;;;;3.92;1.13;;;18.80;73.30;;;;;;5052303;28;20045;-66
2021/10/30 06:09:00;;;;;;;1.67;1.08;;;18.80;73.30;;;;;;5052836;28;20028;-66
2021/10/30 06:11:27;;;;;;;0.80;0.80;;;18.80;73.30;;;;;;5052707;28;20102;-66
2021/10/30 06:13:52;;;;;;;1.05;0.60;;;18.80;73.40;;;;;;5052751;28;20029;-66
2021/10/30 06:16:18;;;;;;;3.72;1.05;;;18.80;73.40;;;;;;5052713;28;20032;-66
2021/10/30 06:18:43;;;;;;;0.82;0.77;;;18.80;73.40;;;;;;5052364;28;20017;-66
2021/10/30 06:21:09;;;;;;;0.98;0.82;;;18.80;73.30;;;;;;5052537;28;20429;-66
2021/10/30 06:23:36;;;;;;;1.58;0.80;;;18.80;73.40;;;;;;5052438;28;20021;-66
2021/10/30 06:26:02;;;;;;;1.45;0.90;;;18.70;73.30;;;;;;5052595;28;20482;-66
2021/10/30 06:28:28;;;;;;;1.73;0.98;;;18.80;73.40;;;;;;5051281;28;20114;-66
2021/10/30 06:30:53;;;;;;;1.25;0.77;;;18.80;73.40;;;;;;5052342;28;20036;-66
2021/10/30 06:33:19;;;;;;;0.98;0.85;;;18.80;73.40;;;;;;5052038;28;20025;-66
2021/10/30 06:35:45;;;;;;;2.67;1.23;;;18.80;73.50;;;;;;5051201;28;20090;-65
2021/10/30 06:38:12;;;;;;;0.80;0.75;;;18.70;73.40;;;;;;5052437;28;20531;-65
2021/10/30 06:40:38;;;;;;;1.15;1.00;;;18.70;73.40;;;;;;5034520;28;20037;-66
2021/10/30 06:43:03;;;;;;;0.88;0.82;;;18.80;73.50;;;;;;5052390;28;20032;-66
2021/10/30 06:45:29;;;;;;;1.20;0.90;;;18.70;73.40;;;;;;5051356;28;20029;-65
2021/10/30 06:47:55;;;;;;;1.02;0.93;;;18.70;73.40;;;;;;5051947;28;20037;-65
2021/10/30 06:50:21;;;;;;;1.27;0.90;;;18.70;73.40;;;;;;5052021;28;20028;-66
2021/10/30 06:52:51;;;;;;;1.42;0.80;;;18.80;73.50;;;;;;5050974;28;20108;-65
2021/10/30 06:55:16;;;;;;;1.33;0.95;;;18.80;73.50;;;;;;5034603;28;20386;-66
2021/10/30 06:57:42;;;;;;;0.80;0.70;;;18.70;73.40;;;;;;5050742;28;20537;-66
2021/10/30 07:00:08;;;;;;;1.48;0.90;;;18.70;73.40;;;;;;5051118;28;20029;-66
2021/10/30 07:02:34;;;;;;;0.88;0.70;;;18.80;73.50;;;;;;5051692;28;20017;-66
2021/10/30 07:05:00;;;;;;;1.40;0.77;;;18.70;73.50;;;;;;5050965;28;20035;-66
2021/10/30 07:07:28;;;;;;;1.67;0.80;;;18.70;73.40;;;;;;5041429;28;20037;-66
2021/10/30 07:10:00;;;;;;;1.92;1.00;;;18.70;73.50;;;;;;5031953;28;20037;-66
2021/10/30 07:12:30;;;;;;;0.70;0.70;;;18.70;73.50;;;;;;5015293;28;20030;-66
2021/10/30 07:14:56;;;;;;;0.77;0.75;;;18.70;73.50;;;;;;5030888;28;20626;-66
2021/10/30 07:17:22;;;;;;;0.90;0.80;;;18.70;73.60;;;;;;5014372;28;20453;-66
2021/10/30 07:19:48;;;;;;;1.92;0.98;;;18.70;73.60;;;;;;5014412;28;20025;-66
2021/10/30 07:22:14;;;;;;;2.58;0.95;;;18.70;73.60;;;;;;5030716;28;20475;-66
2021/10/30 07:24:40;;;;;;;1.65;0.80;;;18.70;73.60;;;;;;5031933;28;20033;-66
2021/10/30 07:27:05;;;;;;;2.08;0.68;;;18.70;73.50;;;;;;5032033;28;20021;-66
2021/10/30 07:29:31;;;;;;;1.75;0.60;;;18.70;73.50;;;;;;5037174;28;20048;-66
2021/10/30 07:31:56;;;;;;;2.05;0.80;;;18.70;73.50;;;;;;5051561;28;20031;-66
2021/10/30 07:34:22;;;;;;;1.00;0.70;;;18.70;73.50;;;;;;5051731;28;20028;-66
2021/10/30 07:36:48;;;;;;;0.95;0.80;;;18.70;73.50;;;;;;5050549;28;20363;-66
2021/10/30 07:39:14;;;;;;;1.00;0.73;;;18.70;73.60;;;;;;5050640;28;20100;-66
2021/10/30 07:41:40;;;;;;;0.68;0.47;;;18.70;73.60;;;;;;5050462;28;20040;-66
2021/10/30 07:44:05;;;;;;;0.70;0.70;;;18.80;73.60;;;;;;5051788;28;20029;-66
2021/10/30 07:46:31;;;;;;;1.27;0.85;;;18.70;73.60;;;;;;5050064;28;20044;-66
2021/10/30 07:48:57;;;;;;;1.70;1.08;;;18.70;73.60;;;;;;5050504;28;20051;-66
2021/10/30 07:51:23;;;;;;;0.80;0.52;;;18.70;73.60;;;;;;5050551;28;20063;-66
2021/10/30 07:53:48;;;;;;;0.93;0.80;;;18.70;74.70;;;;;;5050342;28;20021;-66
2021/10/30 07:56:15;;;;;;;3.72;0.98;;;18.70;73.60;;;;;;5051847;28;20043;-66
2021/10/30 07:58:41;;;;;;;1.00;0.80;;;18.70;73.60;;;;;;5055179;28;20017;-66
2021/10/30 08:01:07;;;;;;;2.05;0.68;;;18.70;73.60;;;;;;5054832;28;20036;-66
2021/10/30 08:03:33;;;;;;;0.65;0.65;;;18.70;73.60;;;;;;5055000;28;20017;-66
2021/10/30 08:05:58;;;;;;;1.25;0.70;;;18.70;73.60;;;;;;5053798;28;20029;-66
2021/10/30 08:08:24;;;;;;;0.82;0.70;;;18.70;73.60;;;;;;5054762;28;20033;-66
2021/10/30 08:10:50;;;;;;;0.70;0.65;;;18.70;73.70;;;;;;5054745;28;20476;-66
2021/10/30 08:13:15;;;;;;;4.78;0.80;;;18.70;73.70;;;;;;5053812;28;20031;-66
2021/10/30 08:15:41;;;;;;;1.00;0.80;;;18.70;73.70;;;;;;5053321;28;20497;-66
2021/10/30 08:18:07;;;;;;;2.35;0.80;;;18.70;73.70;;;;;;5053714;28;20079;-66
2021/10/30 08:20:33;;;;;;;0.65;0.60;;;18.70;73.70;;;;;;5054675;28;20184;-66
2021/10/30 08:22:59;;;;;;;1.48;0.70;;;18.70;73.70;;;;;;5053618;28;20021;-66
2021/10/30 08:25:25;;;;;;;1.10;0.80;;;18.70;73.70;;;;;;5053587;28;20059;-66
2021/10/30 08:27:50;;;;;;;1.52;0.82;;;18.70;73.80;;;;;;5040667;28;20025;-66
2021/10/30 08:30:17;;;;;;;1.30;0.65;;;18.70;73.80;;;;;;5050561;28;20029;-66
2021/10/30 08:32:42;;;;;;;2.22;0.68;;;18.70;73.80;;;;;;5034210;28;20163;-66
2021/10/30 08:35:08;;;;;;;1.10;0.75;;;18.70;73.90;;;;;;5040687;28;20508;-66
2021/10/30 08:37:34;;;;;;;3.17;1.30;;;18.70;73.90;;;;;;5038289;28;20029;-66
2021/10/30 08:39:59;;;;;;;1.60;0.80;;;18.70;73.90;;;;;;5034725;28;20048;-66
2021/10/30 08:42:25;;;;;;;1.15;0.80;;;18.70;73.90;;;;;;5047881;28;20441;-66
2021/10/30 08:44:53;;;;;;;1.63;0.70;;;18.80;74.00;;;;;;5044061;28;20414;-66
2021/10/30 08:47:19;;;;;;;0.70;0.60;;;18.80;74.00;;;;;;5040175;28;20139;-66
2021/10/30 08:49:45;;;;;;;1.27;0.80;;;18.80;74.00;;;;;;5068691;28;20482;-66
2021/10/30 08:52:11;;;;;;;0.77;0.70;;;18.80;74.00;;;;;;5057937;28;20098;-66
2021/10/30 08:54:37;;;;;;;0.60;0.60;;;18.70;74.00;;;;;;5054711;28;20386;-66
2021/10/30 08:57:03;;;;;;;1.60;0.50;;;18.70;73.40;;;;;;5036189;28;20027;-66
2021/10/30 08:59:55;;;;;;;2.17;0.70;;;18.70;73.00;;;;;;5073436;28;20468;-66
2021/10/30 09:02:25;;;;;;;3.40;0.65;;;18.50;72.30;;;;;;5070556;28;20110;-66
2021/10/30 09:05:11;;;;;;;1.20;0.57;;;18.40;72.90;;;;;;5073861;28;20095;-66
2021/10/30 09:07:37;;;;;;;1.58;0.70;;;18.30;72.40;;;;;;5067266;28;20113;-66
2021/10/30 09:10:17;;;;;;;1.27;0.60;;;18.20;72.60;;;;;;5070137;28;20424;-66
2021/10/30 09:12:50;;;;;;;2.47;0.77;;;18.20;72.60;;;;;;5048691;28;20150;-66
2021/10/30 09:15:19;;;;;;;2.88;0.70;;;18.10;72.40;;;;;;5065628;28;20142;-67
2021/10/30 09:17:46;;;;;;;1.65;0.77;;;18.00;72.50;;;;;;5053706;28;20458;-66
2021/10/30 09:20:15;;;;;;;3.85;0.80;;;18.00;72.50;;;;;;5072534;28;20458;-65
2021/10/30 09:22:40;;;;;;;2.25;0.93;;;17.90;72.20;;;;;;5055954;28;20021;-65
2021/10/30 09:25:07;;;;;;;4.60;1.08;;;17.90;72.20;;;;;;5052037;28;20025;-66
2021/10/30 09:27:54;;;;;;;2.03;0.68;;;17.90;72.20;;;;;;5057400;28;20071;-67
2021/10/30 09:30:25;;;;;;;4.63;1.05;;;17.90;72.10;;;;;;5048375;28;20028;-67
2021/10/30 09:33:01;;;;;;;1.88;0.65;;;17.80;72.10;;;;;;5054442;28;20397;-67
2021/10/30 09:35:30;;;;;;;0.82;0.70;;;17.80;72.10;;;;;;5062277;28;20024;-67
2021/10/30 09:37:56;;;;;;;4.03;0.60;;;17.80;73.00;;;;;;5062853;28;20094;-68
2021/10/30 09:40:24;;;;;;;1.95;0.82;;;17.70;71.80;;;;;;5062625;28;20490;-68
2021/10/30 09:43:22;;;;;;;3.20;0.50;;;17.70;71.80;;;;;;5062444;28;20398;-68
2021/10/30 09:45:50;;;;;;;2.60;0.60;;;17.70;71.20;;;;;;4961071;28;20527;-68
2021/10/30 09:48:20;;;;;;;2.47;0.50;;;17.70;71.70;;;;;;4963133;28;20039;-66
2021/10/30 09:50:47;;;;;;;2.33;0.57;;;17.60;71.60;;;;;;4966452;28;20053;-67
2021/10/30 09:53:31;;;;;;;2.38;0.75;;;17.60;71.50;;;;;;4963354;28;20082;-66
2021/10/30 09:55:59;;;;;;;1.90;1.02;;;17.60;71.40;;;;;;4977104;28;20114;-65
2021/10/30 09:58:36;;;;;;;3.85;0.60;;;17.60;71.20;;;;;;4986578;28;20080;-67
2021/10/30 10:01:08;;;;;;;2.42;0.60;;;17.60;71.20;;;;;;4978617;28;20135;-66
2021/10/30 10:03:34;;;;;;;1.55;0.68;;;17.50;71.20;;;;;;4958372;28;20037;-66
2021/10/30 10:06:03;;;;;;;3.33;0.60;;;17.50;71.10;;;;;;4974731;28;20031;-66
2021/10/30 10:08:29;;;;;;;1.45;0.50;;;17.50;71.10;;;;;;4955852;28;20053;-65
2021/10/30 10:10:56;;;;;;;2.15;0.60;;;17.50;71.10;;;;;;4966890;28;20109;-66
2021/10/30 10:13:22;;;;;;;3.70;0.60;;;17.50;71.10;;;;;;4952664;28;20057;-69
2021/10/30 10:15:50;;;;;;;2.20;0.68;;;17.50;71.00;;;;;;4977154;28;20067;-68
2021/10/30 10:18:16;;;;;;;1.73;0.80;;;17.50;70.90;;;;;;4973738;28;20022;-67
2021/10/30 10:20:42;;;;;;;2.28;0.65;;;17.40;70.90;;;;;;4993378;28;20086;-67
2021/10/30 10:23:08;;;;;;;4.95;0.98;;;17.40;70.80;;;;;;5056595;28;20032;-67
2021/10/30 10:25:34;;;;;;;2.55;0.60;;;17.40;70.70;;;;;;5049227;28;20017;-71
2021/10/30 10:28:35;;;;;;;1.85;0.68;;;17.40;70.70;;;;;;5049336;28;20111;-70
2021/10/30 10:31:03;;;;;;;2.42;0.63;;;17.40;70.40;;;;;;5052509;28;20139;-69
2021/10/30 10:33:29;;;;;;;2.25;0.70;;;17.40;70.70;;;;;;5065048;28;20519;-69
2021/10/30 10:36:13;;;;;;;1.73;0.35;;;17.30;70.60;;;;;;5056216;28;20025;-72
2021/10/30 10:38:57;;;;;;;1.67;0.30;;;17.40;70.20;;;;;;5057196;28;20029;-69
2021/10/30 10:41:38;;;;;;;1.83;0.38;;;17.30;70.10;;;;;;5051729;28;20017;-68
2021/10/30 10:44:07;;;;;;;2.40;0.50;;;17.30;70.00;;;;;;5049132;28;20032;-68
2021/10/30 10:46:32;;;;;;;2.13;0.68;;;17.20;70.20;;;;;;5058230;28;20086;-68
2021/10/30 10:49:18;;;;;;;3.05;0.43;;;17.20;70.10;;;;;;5061732;28;20033;-69
2021/10/30 10:51:47;;;;;;;1.67;0.40;;;17.20;69.90;;;;;;5076176;28;20017;-69
2021/10/30 10:54:14;;;;;;;1.42;0.50;;;17.20;70.10;;;;;;5060928;28;20406;-68
2021/10/30 10:56:59;;;;;;;1.88;0.40;;;17.20;70.10;;;;;;5053161;28;20047;-68
2021/10/30 10:59:40;;;;;;;1.02;0.45;;;17.20;69.70;;;;;;5044935;28;20031;-68
2021/10/30 11:02:16;;;;;;;1.77;0.40;;;17.20;69.80;;;;;;5042122;28;20016;-68
2021/10/30 11:05:10;;;;;;;0.82;0.43;;;17.10;69.90;;;;;;5065115;28;20496;-68
2021/10/30 11:07:44;;;;;;;1.85;0.30;;;17.20;70.00;;;;;;5042315;28;20044;-68
2021/10/30 11:10:11;;;;;;;3.05;0.50;;;17.20;69.90;;;;;;5066311;28;20139;-69
2021/10/30 11:12:37;;;;;;;2.83;0.73;;;17.20;69.70;;;;;;5055914;28;20021;-68
2021/10/30 11:15:08;;;;;;;2.10;0.40;;;17.20;69.70;;;;;;5061068;28;20024;-69
2021/10/30 11:17:42;;;;;;;3.25;0.52;;;17.10;69.60;;;;;;5050271;28;20148;-70
2021/10/30 11:20:20;;;;;;;2.63;0.50;;;17.10;69.40;;;;;;5056271;28;20444;-68
2021/10/30 11:23:25;;;;;;;1.70;0.50;;;17.10;69.40;;;;;;5049692;28;20064;-68
2021/10/30 11:26:07;;;;;;;5.15;0.77;;;17.10;69.10;;;;;;5035952;28;20509;-68
2021/10/30 11:28:33;;;;;;;1.97;0.50;;;17.10;69.20;;;;;;5045406;28;20120;-69
2021/10/30 11:31:00;;;;;;;3.03;0.75;;;17.10;69.40;;;;;;5058307;28;20083;-69
2021/10/30 11:33:29;;;;;;;1.60;0.32;;;17.10;69.20;;;;;;5065989;28;20103;-69
2021/10/30 11:36:14;;;;;;;3.22;0.60;;;17.10;69.40;;;;;;5058010;28;20032;-68
2021/10/30 11:38:51;;;;;;;1.75;0.60;;;17.20;69.90;;;;;;5054442;28;20519;-68
2021/10/30 11:41:24;;;;;;;3.92;0.55;;;17.30;70.20;;;;;;5058657;28;20051;-68
2021/10/30 11:43:50;;;;;;;4.70;0.85;;;17.40;70.30;;;;;;5070482;28;20066;-68
2021/10/30 11:46:17;;;;;;;2.28;0.50;;;17.50;70.30;;;;;;5041783;28;20032;-67
2021/10/30 11:48:51;;;;;;;3.55;0.77;;;17.60;70.40;;;;;;5074354;28;20060;-68
2021/10/30 11:51:20;;;;;;;6.63;1.45;;;17.70;70.30;;;;;;5050555;28;20024;-68
2021/10/30 11:53:47;;;;;;;12.63;1.92;;;17.80;70.30;;;;;;5062297;28;20079;-68
2021/10/30 11:56:14;;;;;;;8.57;1.70;;;17.80;70.30;;;;;;5068287;28;20052;-68
2021/10/30 11:58:50;;;;;;;11.75;1.75;;;17.90;70.20;;;;;;5060917;28;20021;-67
2021/10/30 12:01:35;;;;;;;9.80;1.67;;;17.90;70.20;;;;;;5064090;28;20104;-67
2021/10/30 12:04:20;;;;;;;11.70;1.60;;;18.00;70.50;;;;;;5063488;28;20504;-68
2021/10/30 12:06:54;;;;;;;5.13;1.95;;;18.00;70.50;;;;;;5055039;28;20418;-69
2021/10/30 12:09:35;;;;;;;10.05;1.50;;;18.10;70.70;;;;;;5068908;28;20075;-68
2021/10/30 12:12:06;;;;;;;9.18;1.60;;;18.10;71.60;;;;;;5059393;28;20032;-68
2021/10/30 12:14:40;;;;;;;10.65;1.80;;;18.20;70.80;;;;;;5054457;28;20540;-68
2021/10/30 12:17:19;;;;;;;12.57;1.65;;;18.20;70.80;;;;;;5055231;28;20032;-68
2021/10/30 12:20:07;;;;;;;8.68;1.48;;;18.30;71.00;;;;;;5055125;28;20477;-68
2021/10/30 12:22:43;;;;;;;9.88;1.75;;;18.30;70.90;;;;;;5065781;28;20032;-68
2021/10/30 12:25:10;;;;;;;4.80;1.83;;;18.30;71.00;;;;;;5056663;28;20021;-68
2021/10/30 12:27:48;;;;;;;5.45;1.35;;;18.30;71.00;;;;;;5066890;28;20017;-68
2021/10/30 12:30:20;;;;;;;4.85;1.77;;;18.40;71.10;;;;;;5059254;28;20119;-68
2021/10/30 12:32:47;;;;;;;4.80;1.20;;;18.30;71.10;;;;;;5059095;28;20021;-68
2021/10/30 12:35:19;;;;;;;3.75;1.92;;;18.30;71.10;;;;;;5064451;28;20028;-68
2021/10/30 12:37:47;;;;;;;5.88;1.38;;;18.40;71.20;;;;;;5058710;28;20021;-68
2021/10/30 12:40:14;;;;;;;8.05;1.55;;;18.40;71.20;;;;;;5062370;28;20112;-68
2021/10/30 12:42:40;;;;;;;5.38;1.20;;;18.40;71.30;;;;;;5062797;28;20029;-68
2021/10/30 12:45:06;;;;;;;5.47;1.70;;;18.40;71.50;;;;;;5041934;28;20490;-68
2021/10/30 12:47:32;;;;;;;4.85;1.30;;;18.40;71.40;;;;;;5068363;28;20056;-68
2021/10/30 12:49:58;;;;;;;3.92;1.40;;;18.40;71.50;;;;;;5061300;28;20024;-68